sensor_id;sensor_type;location;lat;lon;timestamp;pressure;altitude;pressure_sealevel;temperature;humidity
61618;BME280;47518;51.776;9.370;2023-04-06T00:01:01;100643.31;;;0.98;70.33
61618;BME280;47518;51.776;9.370;2023-04-06T00:03:27;100634.09;;;0.89;70.24
61618;BME280;47518;51.776;9.370;2023-04-06T00:05:52;100627.66;;;0.79;71.80
61618;BME280;47518;51.776;9.370;2023-04-06T00:08:18;100628.09;;;0.85;70.51
61618;BME280;47518;51.776;9.370;2023-04-06T00:10:43;100623.94;;;0.94;71.35
61618;BME280;47518;51.776;9.370;2023-04-06T00:13:09;100625.75;;;0.94;71.00
61618;BME280;47518;51.776;9.370;2023-04-06T00:15:34;100620.41;;;0.94;71.22
61618;BME280;47518;51.776;9.370;2023-04-06T00:18:00;100625.84;;;0.92;71.95
61618;BME280;47518;51.776;9.370;2023-04-06T00:20:25;100622.75;;;0.73;72.73
61618;BME280;47518;51.776;9.370;2023-04-06T00:22:50;100619.31;;;0.58;72.29
61618;BME280;47518;51.776;9.370;2023-04-06T00:25:16;100623.38;;;0.64;72.21
61618;BME280;47518;51.776;9.370;2023-04-06T00:27:41;100618.03;;;0.64;71.83
61618;BME280;47518;51.776;9.370;2023-04-06T00:30:08;100616.66;;;0.71;71.07
61618;BME280;47518;51.776;9.370;2023-04-06T00:32:34;100610.97;;;0.63;72.34
61618;BME280;47518;51.776;9.370;2023-04-06T00:35:02;100615.97;;;0.54;72.16
61618;BME280;47518;51.776;9.370;2023-04-06T00:37:27;100608.19;;;0.77;71.94
61618;BME280;47518;51.776;9.370;2023-04-06T00:39:53;100602.09;;;0.62;72.08
61618;BME280;47518;51.776;9.370;2023-04-06T00:42:18;100600.16;;;0.51;73.71
61618;BME280;47518;51.776;9.370;2023-04-06T00:44:51;100591.56;;;0.46;73.24
61618;BME280;47518;51.776;9.370;2023-04-06T00:47:17;100597.59;;;0.63;72.61
61618;BME280;47518;51.776;9.370;2023-04-06T00:49:42;100590.63;;;0.47;72.04
61618;BME280;47518;51.776;9.370;2023-04-06T00:52:07;100586.22;;;0.46;71.86
61618;BME280;47518;51.776;9.370;2023-04-06T00:54:33;100588.59;;;0.51;73.82
61618;BME280;47518;51.776;9.370;2023-04-06T00:56:58;100585.06;;;0.50;73.66
61618;BME280;47518;51.776;9.370;2023-04-06T00:59:24;100586.53;;;0.29;74.16
61618;BME280;47518;51.776;9.370;2023-04-06T01:01:49;100577.03;;;0.50;72.54
61618;BME280;47518;51.776;9.370;2023-04-06T01:04:15;100579.06;;;0.47;73.24
61618;BME280;47518;51.776;9.370;2023-04-06T01:06:40;100579.47;;;0.41;71.42
61618;BME280;47518;51.776;9.370;2023-04-06T01:09:05;100579.38;;;0.29;73.24
61618;BME280;47518;51.776;9.370;2023-04-06T01:11:31;100579.88;;;0.22;73.84
61618;BME280;47518;51.776;9.370;2023-04-06T01:13:56;100575.84;;;0.29;72.80
61618;BME280;47518;51.776;9.370;2023-04-06T01:16:22;100571.69;;;0.38;72.04
61618;BME280;47518;51.776;9.370;2023-04-06T01:18:47;100568.22;;;0.23;74.39
61618;BME280;47518;51.776;9.370;2023-04-06T01:21:12;100570.88;;;0.23;74.32
61618;BME280;47518;51.776;9.370;2023-04-06T01:23:47;100571.84;;;0.22;74.10
61618;BME280;47518;51.776;9.370;2023-04-06T01:26:13;100568.03;;;0.26;74.08
61618;BME280;47518;51.776;9.370;2023-04-06T01:28:39;100566.09;;;0.15;74.72
61618;BME280;47518;51.776;9.370;2023-04-06T01:31:06;100571.66;;;0.25;74.68
61618;BME280;47518;51.776;9.370;2023-04-06T01:33:32;100563.31;;;0.17;73.25
61618;BME280;47518;51.776;9.370;2023-04-06T01:35:57;100557.34;;;0.26;74.20
61618;BME280;47518;51.776;9.370;2023-04-06T01:38:22;100565.34;;;0.26;74.20
61618;BME280;47518;51.776;9.370;2023-04-06T01:40:48;100558.91;;;0.16;73.47
61618;BME280;47518;51.776;9.370;2023-04-06T01:43:13;100559.22;;;0.11;73.85
61618;BME280;47518;51.776;9.370;2023-04-06T01:45:38;100558.31;;;0.25;73.83
61618;BME280;47518;51.776;9.370;2023-04-06T01:48:04;100553.22;;;0.08;73.34
61618;BME280;47518;51.776;9.370;2023-04-06T01:50:30;100553.56;;;0.16;72.99
61618;BME280;47518;51.776;9.370;2023-04-06T01:52:55;100553.00;;;0.11;73.71
61618;BME280;47518;51.776;9.370;2023-04-06T01:55:21;100552.38;;;0.07;72.43
61618;BME280;47518;51.776;9.370;2023-04-06T01:57:46;100550.41;;;-0.04;74.57
61618;BME280;47518;51.776;9.370;2023-04-06T02:00:12;100548.44;;;0.13;74.49
61618;BME280;47518;51.776;9.370;2023-04-06T02:02:37;100551.75;;;0.16;74.40
61618;BME280;47518;51.776;9.370;2023-04-06T02:05:03;100548.75;;;0.21;74.94
61618;BME280;47518;51.776;9.370;2023-04-06T02:07:28;100540.94;;;0.18;74.29
61618;BME280;47518;51.776;9.370;2023-04-06T02:09:54;100553.94;;;-0.03;74.29
61618;BME280;47518;51.776;9.370;2023-04-06T02:12:20;100548.00;;;0.06;72.66
61618;BME280;47518;51.776;9.370;2023-04-06T02:14:46;100551.38;;;-0.05;73.98
61618;BME280;47518;51.776;9.370;2023-04-06T02:17:11;100545.38;;;-0.21;74.30
61618;BME280;47518;51.776;9.370;2023-04-06T02:19:36;100549.97;;;-0.23;75.53
61618;BME280;47518;51.776;9.370;2023-04-06T02:22:02;100552.50;;;-0.34;75.08
61618;BME280;47518;51.776;9.370;2023-04-06T02:24:27;100544.66;;;-0.37;76.11
61618;BME280;47518;51.776;9.370;2023-04-06T02:26:52;100547.28;;;-0.23;75.22
61618;BME280;47518;51.776;9.370;2023-04-06T02:29:18;100534.38;;;-0.04;72.98
61618;BME280;47518;51.776;9.370;2023-04-06T02:31:43;100544.97;;;-0.02;73.52
61618;BME280;47518;51.776;9.370;2023-04-06T02:34:08;100547.28;;;-0.23;74.31
61618;BME280;47518;51.776;9.370;2023-04-06T02:36:36;100537.66;;;-0.13;74.74
61618;BME280;47518;51.776;9.370;2023-04-06T02:39:02;100541.53;;;-0.04;74.65
61618;BME280;47518;51.776;9.370;2023-04-06T02:41:28;100540.28;;;-0.11;74.51
61618;BME280;47518;51.776;9.370;2023-04-06T02:43:53;100537.03;;;-0.16;74.22
61618;BME280;47518;51.776;9.370;2023-04-06T02:46:19;100541.44;;;-0.42;76.33
61618;BME280;47518;51.776;9.370;2023-04-06T02:48:44;100538.38;;;-0.23;75.97
61618;BME280;47518;51.776;9.370;2023-04-06T02:51:10;100541.81;;;-0.34;75.52
61618;BME280;47518;51.776;9.370;2023-04-06T02:53:35;100541.16;;;-0.25;75.59
61618;BME280;47518;51.776;9.370;2023-04-06T02:56:00;100545.63;;;-0.38;75.66
61618;BME280;47518;51.776;9.370;2023-04-06T02:58:26;100542.94;;;-0.38;74.28
61618;BME280;47518;51.776;9.370;2023-04-06T03:00:51;100537.97;;;-0.57;75.29
61618;BME280;47518;51.776;9.370;2023-04-06T03:03:16;100540.66;;;-0.71;76.35
61618;BME280;47518;51.776;9.370;2023-04-06T03:05:42;100532.75;;;-0.73;76.56
61618;BME280;47518;51.776;9.370;2023-04-06T03:08:07;100533.81;;;-0.75;76.82
61618;BME280;47518;51.776;9.370;2023-04-06T03:10:33;100528.97;;;-0.83;77.29
61618;BME280;47518;51.776;9.370;2023-04-06T03:12:58;100531.78;;;-0.72;76.53
61618;BME280;47518;51.776;9.370;2023-04-06T03:15:23;100534.28;;;-0.69;76.66
61618;BME280;47518;51.776;9.370;2023-04-06T03:17:48;100537.13;;;-0.57;75.95
61618;BME280;47518;51.776;9.370;2023-04-06T03:20:14;100530.81;;;-0.56;75.68
61618;BME280;47518;51.776;9.370;2023-04-06T03:22:40;100525.53;;;-0.58;77.55
61618;BME280;47518;51.776;9.370;2023-04-06T03:25:06;100527.28;;;-0.57;76.41
61618;BME280;47518;51.776;9.370;2023-04-06T03:27:31;100536.50;;;-0.48;75.13
61618;BME280;47518;51.776;9.370;2023-04-06T03:29:57;100537.28;;;-0.46;75.43
61618;BME280;47518;51.776;9.370;2023-04-06T03:32:23;100528.47;;;-0.48;75.97
61618;BME280;47518;51.776;9.370;2023-04-06T03:34:48;100535.09;;;-0.54;77.19
61618;BME280;47518;51.776;9.370;2023-04-06T03:37:13;100535.03;;;-0.67;77.48
61618;BME280;47518;51.776;9.370;2023-04-06T03:39:39;100535.09;;;-0.54;76.56
61618;BME280;47518;51.776;9.370;2023-04-06T03:42:05;100540.53;;;-0.55;76.16
61618;BME280;47518;51.776;9.370;2023-04-06T03:44:31;100534.28;;;-0.69;75.61
61618;BME280;47518;51.776;9.370;2023-04-06T03:46:57;100534.34;;;-0.70;76.10
61618;BME280;47518;51.776;9.370;2023-04-06T03:49:22;100539.53;;;-0.67;76.38
61618;BME280;47518;51.776;9.370;2023-04-06T03:51:50;100538.00;;;-0.71;76.36
61618;BME280;47518;51.776;9.370;2023-04-06T03:54:15;100539.75;;;-0.84;75.80
61618;BME280;47518;51.776;9.370;2023-04-06T03:56:41;100540.16;;;-0.91;75.84
61618;BME280;47518;51.776;9.370;2023-04-06T03:59:06;100539.78;;;-0.99;77.07
61618;BME280;47518;51.776;9.370;2023-04-06T04:01:31;100538.59;;;-0.95;77.89
61618;BME280;47518;51.776;9.370;2023-04-06T04:03:57;100542.28;;;-0.69;76.66
61618;BME280;47518;51.776;9.370;2023-04-06T04:06:25;100541.22;;;-0.66;77.27
61618;BME280;47518;51.776;9.370;2023-04-06T04:08:50;100536.44;;;-0.61;77.35
61618;BME280;47518;51.776;9.370;2023-04-06T04:11:16;100542.34;;;-0.56;75.57
61618;BME280;47518;51.776;9.370;2023-04-06T04:13:41;100549.94;;;-0.77;75.92
61618;BME280;47518;51.776;9.370;2023-04-06T04:16:07;100545.75;;;-0.81;76.35
61618;BME280;47518;51.776;9.370;2023-04-06T04:18:32;100547.06;;;-0.74;76.19
61618;BME280;47518;51.776;9.370;2023-04-06T04:20:57;100553.34;;;-0.75;76.50
61618;BME280;47518;51.776;9.370;2023-04-06T04:23:22;100544.03;;;-0.82;77.57
61618;BME280;47518;51.776;9.370;2023-04-06T04:25:48;100543.63;;;-0.76;77.32
61618;BME280;47518;51.776;9.370;2023-04-06T04:28:13;100545.50;;;-0.91;77.80
61618;BME280;47518;51.776;9.370;2023-04-06T04:30:39;100545.66;;;-0.94;77.51
61618;BME280;47518;51.776;9.370;2023-04-06T04:33:04;100543.19;;;-0.97;76.75
61618;BME280;47518;51.776;9.370;2023-04-06T04:35:29;100537.41;;;-1.03;77.69
61618;BME280;47518;51.776;9.370;2023-04-06T04:37:56;100533.19;;;-1.07;77.88
61618;BME280;47518;51.776;9.370;2023-04-06T04:40:21;100535.41;;;-1.14;77.14
61618;BME280;47518;51.776;9.370;2023-04-06T04:42:46;100540.34;;;-1.08;77.51
61618;BME280;47518;51.776;9.370;2023-04-06T04:45:12;100543.09;;;-0.95;77.69
61618;BME280;47518;51.776;9.370;2023-04-06T04:47:38;100539.28;;;-0.91;77.67
61618;BME280;47518;51.776;9.370;2023-04-06T04:50:03;100539.41;;;-0.93;77.70
61618;BME280;47518;51.776;9.370;2023-04-06T04:52:29;100543.84;;;-0.93;78.53
61618;BME280;47518;51.776;9.370;2023-04-06T04:54:54;100547.19;;;-0.90;78.35
61618;BME280;47518;51.776;9.370;2023-04-06T04:57:19;100542.91;;;-0.92;78.29
61618;BME280;47518;51.776;9.370;2023-04-06T04:59:45;100549.22;;;-1.07;77.41
61618;BME280;47518;51.776;9.370;2023-04-06T05:02:10;100546.28;;;-1.03;77.13
61618;BME280;47518;51.776;9.370;2023-04-06T05:04:35;100548.09;;;-1.03;77.49
61618;BME280;47518;51.776;9.370;2023-04-06T05:07:08;100544.22;;;-0.85;77.25
61618;BME280;47518;51.776;9.370;2023-04-06T05:09:34;100541.06;;;-0.77;76.54
61618;BME280;47518;51.776;9.370;2023-04-06T05:12:00;100545.28;;;-0.88;76.82
61618;BME280;47518;51.776;9.370;2023-04-06T05:14:26;100546.13;;;-0.87;77.30
61618;BME280;47518;51.776;9.370;2023-04-06T05:16:51;100536.69;;;-0.78;77.48
61618;BME280;47518;51.776;9.370;2023-04-06T05:19:17;100540.75;;;-0.73;77.35
61618;BME280;47518;51.776;9.370;2023-04-06T05:21:42;100544.50;;;-0.75;77.84
61618;BME280;47518;51.776;9.370;2023-04-06T05:24:08;100538.25;;;-0.62;76.77
61618;BME280;47518;51.776;9.370;2023-04-06T05:26:33;100544.50;;;-0.48;75.80
61618;BME280;47518;51.776;9.370;2023-04-06T05:28:59;100538.03;;;-0.44;77.04
61618;BME280;47518;51.776;9.370;2023-04-06T05:31:24;100546.06;;;-0.32;76.95
61618;BME280;47518;51.776;9.370;2023-04-06T05:33:56;100547.41;;;-0.12;76.79
61618;BME280;47518;51.776;9.370;2023-04-06T05:36:22;100544.31;;;-0.06;75.79
61618;BME280;47518;51.776;9.370;2023-04-06T05:38:47;100546.16;;;-0.06;75.41
61618;BME280;47518;51.776;9.370;2023-04-06T05:41:13;100546.78;;;-0.03;74.78
61618;BME280;47518;51.776;9.370;2023-04-06T05:43:38;100537.53;;;0.16;75.29
61618;BME280;47518;51.776;9.370;2023-04-06T05:46:03;100537.50;;;0.03;73.29
61618;BME280;47518;51.776;9.370;2023-04-06T05:48:29;100542.84;;;-0.10;75.28
61618;BME280;47518;51.776;9.370;2023-04-06T05:50:54;100545.09;;;0.09;73.90
61618;BME280;47518;51.776;9.370;2023-04-06T05:53:20;100539.88;;;0.20;75.17
61618;BME280;47518;51.776;9.370;2023-04-06T05:55:46;100540.09;;;0.30;74.57
61618;BME280;47518;51.776;9.370;2023-04-06T05:58:11;100548.88;;;0.32;75.10
61618;BME280;47518;51.776;9.370;2023-04-06T06:00:37;100548.88;;;0.32;74.04
61618;BME280;47518;51.776;9.370;2023-04-06T06:03:02;100543.97;;;0.39;75.08
61618;BME280;47518;51.776;9.370;2023-04-06T06:05:29;100546.75;;;0.24;75.03
61618;BME280;47518;51.776;9.370;2023-04-06T06:07:55;100539.88;;;0.46;73.62
61618;BME280;47518;51.776;9.370;2023-04-06T06:24:45;100535.50;;;0.32;75.89
61618;BME280;47518;51.776;9.370;2023-04-06T06:27:11;100541.94;;;0.55;76.64
61618;BME280;47518;51.776;9.370;2023-04-06T06:29:36;100539.03;;;0.83;76.05
61618;BME280;47518;51.776;9.370;2023-04-06T06:32:02;100530.53;;;1.02;74.32
61618;BME280;47518;51.776;9.370;2023-04-06T06:34:27;100533.78;;;1.31;74.62
61618;BME280;47518;51.776;9.370;2023-04-06T06:36:52;100534.19;;;1.62;72.50
61618;BME280;47518;51.776;9.370;2023-04-06T06:39:20;100533.84;;;1.90;72.52
61618;BME280;47518;51.776;9.370;2023-04-06T06:41:45;100527.94;;;2.09;71.71
61618;BME280;47518;51.776;9.370;2023-04-06T06:44:14;100518.31;;;2.18;70.70
61618;BME280;47518;51.776;9.370;2023-04-06T06:46:39;100520.06;;;2.30;69.70
61618;BME280;47518;51.776;9.370;2023-04-06T06:49:05;100527.75;;;2.23;69.73
61618;BME280;47518;51.776;9.370;2023-04-06T06:51:30;100525.22;;;2.44;68.62
61618;BME280;47518;51.776;9.370;2023-04-06T06:53:55;100525.97;;;2.57;67.83
61618;BME280;47518;51.776;9.370;2023-04-06T06:56:21;100525.13;;;2.79;66.92
61618;BME280;47518;51.776;9.370;2023-04-06T06:58:47;100520.25;;;2.96;67.19
61618;BME280;47518;51.776;9.370;2023-04-06T07:01:12;100514.13;;;3.16;65.49
61618;BME280;47518;51.776;9.370;2023-04-06T07:03:38;100522.44;;;3.13;65.58
61618;BME280;47518;51.776;9.370;2023-04-06T07:06:12;100523.00;;;3.39;64.17
61618;BME280;47518;51.776;9.370;2023-04-06T07:08:38;100519.03;;;3.54;63.76
61618;BME280;47518;51.776;9.370;2023-04-06T07:11:03;100518.03;;;3.66;63.23
61618;BME280;47518;51.776;9.370;2023-04-06T07:13:29;100519.22;;;3.73;61.98
61618;BME280;47518;51.776;9.370;2023-04-06T07:15:54;100516.97;;;3.90;60.90
61618;BME280;47518;51.776;9.370;2023-04-06T07:18:20;100515.91;;;4.02;61.34
61618;BME280;47518;51.776;9.370;2023-04-06T07:20:46;100518.75;;;4.21;61.45
61618;BME280;47518;51.776;9.370;2023-04-06T07:23:11;100513.38;;;4.42;60.83
61618;BME280;47518;51.776;9.370;2023-04-06T07:25:37;100515.78;;;4.66;58.35
61618;BME280;47518;51.776;9.370;2023-04-06T07:28:03;100520.75;;;4.71;55.00
61618;BME280;47518;51.776;9.370;2023-04-06T07:30:31;100518.44;;;4.87;50.71
61618;BME280;47518;51.776;9.370;2023-04-06T07:32:57;100517.41;;;5.18;52.79
61618;BME280;47518;51.776;9.370;2023-04-06T07:35:24;100510.22;;;5.28;49.77
61618;BME280;47518;51.776;9.370;2023-04-06T07:37:49;100518.53;;;5.16;49.08
61618;BME280;47518;51.776;9.370;2023-04-06T07:40:15;100510.91;;;5.31;50.35
61618;BME280;47518;51.776;9.370;2023-04-06T07:42:40;100514.38;;;5.52;49.27
61618;BME280;47518;51.776;9.370;2023-04-06T07:45:06;100517.97;;;5.72;48.16
61618;BME280;47518;51.776;9.370;2023-04-06T07:47:32;100508.97;;;5.52;48.27
61618;BME280;47518;51.776;9.370;2023-04-06T07:49:58;100505.75;;;5.68;47.49
61618;BME280;47518;51.776;9.370;2023-04-06T07:52:23;100511.78;;;5.91;48.51
61618;BME280;47518;51.776;9.370;2023-04-06T07:54:48;100506.63;;;6.17;48.27
61618;BME280;47518;51.776;9.370;2023-04-06T07:57:14;100504.50;;;6.10;46.51
61618;BME280;47518;51.776;9.370;2023-04-06T07:59:40;100501.94;;;6.19;45.78
61618;BME280;47518;51.776;9.370;2023-04-06T08:02:05;100498.69;;;6.15;46.23
61618;BME280;47518;51.776;9.370;2023-04-06T08:04:30;100503.78;;;6.08;45.92
61618;BME280;47518;51.776;9.370;2023-04-06T08:06:56;100506.91;;;6.13;46.93
61618;BME280;47518;51.776;9.370;2023-04-06T08:09:21;100492.59;;;6.03;46.33
61618;BME280;47518;51.776;9.370;2023-04-06T08:11:46;100508.78;;;6.03;46.25
61618;BME280;47518;51.776;9.370;2023-04-06T08:14:13;100499.09;;;6.10;46.57
61618;BME280;47518;51.776;9.370;2023-04-06T08:16:40;100498.53;;;6.26;46.07
61618;BME280;47518;51.776;9.370;2023-04-06T08:19:05;100504.88;;;6.44;45.00
61618;BME280;47518;51.776;9.370;2023-04-06T08:21:32;100490.97;;;6.30;44.80
61618;BME280;47518;51.776;9.370;2023-04-06T08:23:58;100488.34;;;6.57;45.74
61618;BME280;47518;51.776;9.370;2023-04-06T08:26:23;100488.19;;;6.68;45.46
61618;BME280;47518;51.776;9.370;2023-04-06T08:28:49;100488.06;;;6.97;44.74
61618;BME280;47518;51.776;9.370;2023-04-06T08:31:14;100490.16;;;6.76;43.98
61618;BME280;47518;51.776;9.370;2023-04-06T08:33:39;100481.44;;;6.82;45.42
61618;BME280;47518;51.776;9.370;2023-04-06T08:36:08;100488.38;;;7.22;44.42
61618;BME280;47518;51.776;9.370;2023-04-06T08:38:33;100483.78;;;7.32;43.63
61618;BME280;47518;51.776;9.370;2023-04-06T08:40:59;100478.94;;;7.26;44.07
61618;BME280;47518;51.776;9.370;2023-04-06T08:43:26;100474.59;;;7.15;43.05
61618;BME280;47518;51.776;9.370;2023-04-06T08:45:52;100479.66;;;7.28;43.60
61618;BME280;47518;51.776;9.370;2023-04-06T08:48:18;100469.03;;;7.62;42.59
61618;BME280;47518;51.776;9.370;2023-04-06T08:50:43;100469.59;;;7.66;43.00
61618;BME280;47518;51.776;9.370;2023-04-06T08:53:10;100467.81;;;7.56;43.69
61618;BME280;47518;51.776;9.370;2023-04-06T08:55:36;100462.72;;;7.89;43.29
61618;BME280;47518;51.776;9.370;2023-04-06T08:58:03;100471.72;;;8.15;41.76
61618;BME280;47518;51.776;9.370;2023-04-06T09:00:29;100470.34;;;7.94;42.23
61618;BME280;47518;51.776;9.370;2023-04-06T09:02:55;100468.97;;;8.33;41.20
61618;BME280;47518;51.776;9.370;2023-04-06T09:05:23;100479.13;;;8.49;40.80
61618;BME280;47518;51.776;9.370;2023-04-06T09:07:51;100469.16;;;8.14;40.85
61618;BME280;47518;51.776;9.370;2023-04-06T09:10:16;100457.75;;;8.46;40.91
61618;BME280;47518;51.776;9.370;2023-04-06T09:12:42;100466.34;;;8.67;39.61
61618;BME280;47518;51.776;9.370;2023-04-06T09:15:18;100465.34;;;8.68;38.99
61618;BME280;47518;51.776;9.370;2023-04-06T09:17:44;100452.16;;;9.07;40.41
61618;BME280;47518;51.776;9.370;2023-04-06T09:20:11;100468.88;;;8.95;39.24
61618;BME280;47518;51.776;9.370;2023-04-06T09:22:38;100466.16;;;8.95;41.02
61618;BME280;47518;51.776;9.370;2023-04-06T09:25:05;100461.00;;;9.18;43.34
61618;BME280;47518;51.776;9.370;2023-04-06T09:27:34;100452.25;;;9.40;41.29
61618;BME280;47518;51.776;9.370;2023-04-06T09:30:09;100451.78;;;9.53;40.11
61618;BME280;47518;51.776;9.370;2023-04-06T09:32:50;100454.84;;;9.66;40.33
61618;BME280;47518;51.776;9.370;2023-04-06T09:35:15;100442.44;;;9.55;41.35
61618;BME280;47518;51.776;9.370;2023-04-06T09:37:43;100448.56;;;9.65;40.35
61618;BME280;47518;51.776;9.370;2023-04-06T09:40:09;100434.31;;;9.80;38.75
61618;BME280;47518;51.776;9.370;2023-04-06T09:42:35;100442.25;;;9.41;38.77
61618;BME280;47518;51.776;9.370;2023-04-06T09:45:01;100443.00;;;10.00;37.84
61618;BME280;47518;51.776;9.370;2023-04-06T09:47:28;100440.97;;;9.85;37.47
61618;BME280;47518;51.776;9.370;2023-04-06T09:49:57;100436.38;;;10.02;37.57
61618;BME280;47518;51.776;9.370;2023-04-06T09:52:30;100441.66;;;10.20;36.78
61618;BME280;47518;51.776;9.370;2023-04-06T09:54:59;100449.78;;;9.79;37.82
61618;BME280;47518;51.776;9.370;2023-04-06T09:57:32;100438.41;;;10.16;36.78
61618;BME280;47518;51.776;9.370;2023-04-06T10:02:50;100442.16;;;10.23;35.96
61618;BME280;47518;51.776;9.370;2023-04-06T10:07:57;100437.22;;;9.94;35.97
61618;BME280;47518;51.776;9.370;2023-04-06T10:10:25;100434.84;;;10.16;37.03
61618;BME280;47518;51.776;9.370;2023-04-06T10:12:51;100437.75;;;10.22;35.94
61618;BME280;47518;51.776;9.370;2023-04-06T10:15:17;100431.31;;;10.23;34.44
61618;BME280;47518;51.776;9.370;2023-04-06T10:17:43;100425.69;;;10.33;36.36
61618;BME280;47518;51.776;9.370;2023-04-06T10:20:15;100422.53;;;10.69;34.42
61618;BME280;47518;51.776;9.370;2023-04-06T10:22:49;100424.78;;;10.57;34.72
61618;BME280;47518;51.776;9.370;2023-04-06T10:25:28;100418.63;;;11.42;34.21
61618;BME280;47518;51.776;9.370;2023-04-06T10:27:59;100421.59;;;11.86;33.16
61618;BME280;47518;51.776;9.370;2023-04-06T10:30:25;100423.97;;;12.04;31.44
61618;BME280;47518;51.776;9.370;2023-04-06T10:32:51;100418.78;;;12.17;32.08
61618;BME280;47518;51.776;9.370;2023-04-06T10:35:16;100423.63;;;11.61;32.41
61618;BME280;47518;51.776;9.370;2023-04-06T10:38:02;100414.16;;;11.26;32.32
61618;BME280;47518;51.776;9.370;2023-04-06T10:40:28;100410.25;;;11.74;33.09
61618;BME280;47518;51.776;9.370;2023-04-06T10:42:54;100417.13;;;12.60;31.77
61618;BME280;47518;51.776;9.370;2023-04-06T10:45:25;100417.31;;;13.03;30.40
61618;BME280;47518;51.776;9.370;2023-04-06T10:47:53;100402.47;;;13.56;29.96
61618;BME280;47518;51.776;9.370;2023-04-06T10:50:19;100418.34;;;13.02;29.57
61618;BME280;47518;51.776;9.370;2023-04-06T10:52:45;100407.38;;;12.51;30.70
61618;BME280;47518;51.776;9.370;2023-04-06T10:55:13;100396.94;;;13.71;29.82
61618;BME280;47518;51.776;9.370;2023-04-06T10:57:42;100395.09;;;13.99;29.67
61618;BME280;47518;51.776;9.370;2023-04-06T11:00:08;100386.41;;;15.75;27.88
61618;BME280;47518;51.776;9.370;2023-04-06T11:02:35;100388.44;;;16.66;26.15
61618;BME280;47518;51.776;9.370;2023-04-06T11:05:01;100389.09;;;16.55;25.54
61618;BME280;47518;51.776;9.370;2023-04-06T11:07:27;100380.50;;;14.42;27.78
61618;BME280;47518;51.776;9.370;2023-04-06T11:09:55;100386.16;;;15.70;27.16
61618;BME280;47518;51.776;9.370;2023-04-06T11:12:22;100384.72;;;16.27;24.69
61618;BME280;47518;51.776;9.370;2023-04-06T11:15:04;100386.19;;;16.30;25.74
61618;BME280;47518;51.776;9.370;2023-04-06T11:17:33;100371.34;;;17.73;24.92
61618;BME280;47518;51.776;9.370;2023-04-06T11:19:59;100369.94;;;17.19;24.12
61618;BME280;47518;51.776;9.370;2023-04-06T11:22:25;100365.63;;;17.75;24.38
61618;BME280;47518;51.776;9.370;2023-04-06T11:24:52;100374.09;;;17.67;23.56
61618;BME280;47518;51.776;9.370;2023-04-06T11:27:18;100380.88;;;16.75;25.19
61618;BME280;47518;51.776;9.370;2023-04-06T11:29:44;100366.75;;;16.58;25.93
61618;BME280;47518;51.776;9.370;2023-04-06T11:32:11;100362.00;;;15.26;26.76
61618;BME280;47518;51.776;9.370;2023-04-06T11:34:38;100372.66;;;15.01;27.04
61618;BME280;47518;51.776;9.370;2023-04-06T11:37:11;100370.91;;;15.48;26.56
61618;BME280;47518;51.776;9.370;2023-04-06T11:39:40;100350.97;;;16.33;26.26
61618;BME280;47518;51.776;9.370;2023-04-06T11:42:06;100357.31;;;15.07;26.94
61618;BME280;47518;51.776;9.370;2023-04-06T11:44:42;100343.81;;;15.86;26.86
61618;BME280;47518;51.776;9.370;2023-04-06T11:47:10;100352.44;;;16.23;25.88
61618;BME280;47518;51.776;9.370;2023-04-06T11:49:38;100350.97;;;15.94;26.34
61618;BME280;47518;51.776;9.370;2023-04-06T11:52:14;100352.25;;;15.10;27.65
61618;BME280;47518;51.776;9.370;2023-04-06T11:54:40;100345.84;;;15.58;26.72
61618;BME280;47518;51.776;9.370;2023-04-06T11:57:07;100335.59;;;15.99;27.34
61618;BME280;47518;51.776;9.370;2023-04-06T11:59:32;100333.19;;;16.69;26.30
61618;BME280;47518;51.776;9.370;2023-04-06T12:01:58;100339.13;;;16.26;27.28
61618;BME280;47518;51.776;9.370;2023-04-06T12:04:24;100335.16;;;17.00;25.63
61618;BME280;47518;51.776;9.370;2023-04-06T12:06:49;100338.84;;;16.54;26.40
61618;BME280;47518;51.776;9.370;2023-04-06T12:09:16;100336.75;;;16.70;26.20
61618;BME280;47518;51.776;9.370;2023-04-06T12:11:42;100322.78;;;17.23;25.89
61618;BME280;47518;51.776;9.370;2023-04-06T12:14:08;100333.72;;;17.67;24.77
61618;BME280;47518;51.776;9.370;2023-04-06T12:16:34;100335.81;;;16.89;26.19
61618;BME280;47518;51.776;9.370;2023-04-06T12:19:00;100313.97;;;16.49;24.74
61618;BME280;47518;51.776;9.370;2023-04-06T12:21:27;100317.75;;;16.68;25.25
61618;BME280;47518;51.776;9.370;2023-04-06T12:23:54;100316.50;;;17.15;24.72
61618;BME280;47518;51.776;9.370;2023-04-06T12:26:20;100310.84;;;17.04;24.32
61618;BME280;47518;51.776;9.370;2023-04-06T12:28:46;100316.41;;;16.90;24.73
61618;BME280;47518;51.776;9.370;2023-04-06T12:31:15;100306.00;;;16.34;25.86
61618;BME280;47518;51.776;9.370;2023-04-06T12:33:41;100305.56;;;16.44;25.19
61618;BME280;47518;51.776;9.370;2023-04-06T12:36:12;100310.47;;;16.94;25.22
61618;BME280;47518;51.776;9.370;2023-04-06T12:38:38;100312.69;;;16.52;24.73
61618;BME280;47518;51.776;9.370;2023-04-06T12:41:05;100295.31;;;17.54;23.91
61618;BME280;47518;51.776;9.370;2023-04-06T12:43:30;100298.72;;;16.80;25.46
61618;BME280;47518;51.776;9.370;2023-04-06T12:45:56;100297.88;;;16.79;25.81
61618;BME280;47518;51.776;9.370;2023-04-06T12:48:21;100295.72;;;17.58;24.41
61618;BME280;47518;51.776;9.370;2023-04-06T12:50:54;100311.84;;;16.51;25.09
61618;BME280;47518;51.776;9.370;2023-04-06T12:53:20;100305.25;;;15.00;27.46
61618;BME280;47518;51.776;9.370;2023-04-06T12:55:45;100297.38;;;15.52;27.63
61618;BME280;47518;51.776;9.370;2023-04-06T12:58:11;100289.28;;;15.10;28.04
61618;BME280;47518;51.776;9.370;2023-04-06T13:00:36;100295.19;;;15.27;29.46
61618;BME280;47518;51.776;9.370;2023-04-06T13:03:02;100289.94;;;15.19;28.25
61618;BME280;47518;51.776;9.370;2023-04-06T13:05:27;100291.97;;;14.97;28.99
61618;BME280;47518;51.776;9.370;2023-04-06T13:07:52;100293.97;;;14.69;29.71
61618;BME280;47518;51.776;9.370;2023-04-06T13:10:18;100285.69;;;14.49;28.86